sensor_id;sensor_type;location;lat;lon;timestamp;P1;durP1;ratioP1;P2;durP2;ratioP2
17997;SDS011;9124;48.144;17.098;2024-03-17T00:03:41;0.98;;;0.98;;
17997;SDS011;9124;48.144;17.098;2024-03-17T00:08:09;1.48;;;1.38;;
17997;SDS011;9124;48.144;17.098;2024-03-17T00:12:36;1.45;;;1.35;;
17997;SDS011;9124;48.144;17.098;2024-03-17T00:17:03;1.38;;;1.30;;
17997;SDS011;9124;48.144;17.098;2024-03-17T00:21:29;2.08;;;1.48;;
17997;SDS011;9124;48.144;17.098;2024-03-17T00:25:56;2.00;;;1.90;;
17997;SDS011;9124;48.144;17.098;2024-03-17T00:30:22;2.03;;;1.92;;
17997;SDS011;9124;48.144;17.098;2024-03-17T00:34:49;2.40;;;2.30;;
17997;SDS011;9124;48.144;17.098;2024-03-17T00:39:15;2.70;;;2.35;;
17997;SDS011;9124;48.144;17.098;2024-03-17T00:43:42;2.40;;;2.30;;
17997;SDS011;9124;48.144;17.098;2024-03-17T00:48:08;2.85;;;2.65;;
17997;SDS011;9124;48.144;17.098;2024-03-17T00:52:35;3.00;;;2.80;;
17997;SDS011;9124;48.144;17.098;2024-03-17T00:57:01;2.40;;;2.30;;
17997;SDS011;9124;48.144;17.098;2024-03-17T01:01:28;3.08;;;2.78;;
17997;SDS011;9124;48.144;17.098;2024-03-17T01:05:54;2.55;;;2.40;;
17997;SDS011;9124;48.144;17.098;2024-03-17T01:10:21;3.03;;;2.83;;
17997;SDS011;9124;48.144;17.098;2024-03-17T01:14:47;4.30;;;3.05;;
17997;SDS011;9124;48.144;17.098;2024-03-17T01:19:13;3.15;;;2.95;;
17997;SDS011;9124;48.144;17.098;2024-03-17T01:23:40;3.80;;;3.60;;
17997;SDS011;9124;48.144;17.098;2024-03-17T01:28:06;3.95;;;3.65;;
17997;SDS011;9124;48.144;17.098;2024-03-17T01:32:33;3.60;;;3.40;;
17997;SDS011;9124;48.144;17.098;2024-03-17T01:36:59;3.58;;;3.30;;
17997;SDS011;9124;48.144;17.098;2024-03-17T01:41:26;4.07;;;3.78;;
17997;SDS011;9124;48.144;17.098;2024-03-17T01:45:52;3.92;;;3.15;;
17997;SDS011;9124;48.144;17.098;2024-03-17T01:50:20;3.85;;;3.53;;
17997;SDS011;9124;48.144;17.098;2024-03-17T01:54:50;6.90;;;3.35;;
17997;SDS011;9124;48.144;17.098;2024-03-17T01:59:17;5.72;;;3.70;;
17997;SDS011;9124;48.144;17.098;2024-03-17T02:03:44;4.88;;;3.70;;
17997;SDS011;9124;48.144;17.098;2024-03-17T02:08:11;4.35;;;4.05;;
17997;SDS011;9124;48.144;17.098;2024-03-17T02:12:37;3.78;;;3.47;;
17997;SDS011;9124;48.144;17.098;2024-03-17T02:17:04;3.38;;;3.10;;
17997;SDS011;9124;48.144;17.098;2024-03-17T02:21:30;3.85;;;3.40;;
17997;SDS011;9124;48.144;17.098;2024-03-17T02:25:57;5.38;;;3.13;;
17997;SDS011;9124;48.144;17.098;2024-03-17T02:30:23;3.50;;;3.20;;
17997;SDS011;9124;48.144;17.098;2024-03-17T02:34:50;3.40;;;3.10;;
17997;SDS011;9124;48.144;17.098;2024-03-17T02:39:16;3.85;;;3.47;;
17997;SDS011;9124;48.144;17.098;2024-03-17T02:44:01;4.78;;;3.50;;
17997;SDS011;9124;48.144;17.098;2024-03-17T02:48:27;3.80;;;3.38;;
17997;SDS011;9124;48.144;17.098;2024-03-17T02:52:54;3.47;;;3.17;;
17997;SDS011;9124;48.144;17.098;2024-03-17T02:57:20;4.25;;;3.47;;
17997;SDS011;9124;48.144;17.098;2024-03-17T03:01:49;6.28;;;3.45;;
17997;SDS011;9124;48.144;17.098;2024-03-17T03:06:16;3.00;;;2.72;;
17997;SDS011;9124;48.144;17.098;2024-03-17T03:10:45;4.07;;;3.15;;
17997;SDS011;9124;48.144;17.098;2024-03-17T03:15:12;4.50;;;3.10;;
17997;SDS011;9124;48.144;17.098;2024-03-17T03:19:38;3.53;;;3.30;;
17997;SDS011;9124;48.144;17.098;2024-03-17T03:24:05;3.92;;;3.03;;
17997;SDS011;9124;48.144;17.098;2024-03-17T03:28:31;3.40;;;3.10;;
17997;SDS011;9124;48.144;17.098;2024-03-17T03:32:59;6.32;;;3.10;;
17997;SDS011;9124;48.144;17.098;2024-03-17T03:37:25;5.22;;;2.80;;
17997;SDS011;9124;48.144;17.098;2024-03-17T03:41:52;2.97;;;2.72;;
17997;SDS011;9124;48.144;17.098;2024-03-17T03:46:20;3.70;;;2.75;;
17997;SDS011;9124;48.144;17.098;2024-03-17T03:50:47;5.00;;;3.05;;
17997;SDS011;9124;48.144;17.098;2024-03-17T03:55:15;2.60;;;2.40;;
17997;SDS011;9124;48.144;17.098;2024-03-17T03:59:42;4.80;;;2.67;;
17997;SDS011;9124;48.144;17.098;2024-03-17T04:04:09;4.65;;;2.38;;
17997;SDS011;9124;48.144;17.098;2024-03-17T04:08:36;3.33;;;3.03;;
17997;SDS011;9124;48.144;17.098;2024-03-17T04:13:07;4.18;;;2.60;;
17997;SDS011;9124;48.144;17.098;2024-03-17T04:17:33;3.90;;;2.75;;
17997;SDS011;9124;48.144;17.098;2024-03-17T04:22:01;5.78;;;3.17;;
17997;SDS011;9124;48.144;17.098;2024-03-17T04:26:27;3.00;;;2.70;;
17997;SDS011;9124;48.144;17.098;2024-03-17T04:31:04;6.30;;;2.90;;
17997;SDS011;9124;48.144;17.098;2024-03-17T04:35:37;4.72;;;2.97;;
17997;SDS011;9124;48.144;17.098;2024-03-17T04:40:05;3.85;;;2.17;;
17997;SDS011;9124;48.144;17.098;2024-03-17T04:44:35;5.50;;;3.10;;
17997;SDS011;9124;48.144;17.098;2024-03-17T04:49:01;3.10;;;2.35;;
17997;SDS011;9124;48.144;17.098;2024-03-17T04:53:30;5.60;;;2.95;;
17997;SDS011;9124;48.144;17.098;2024-03-17T04:57:57;4.32;;;2.40;;
17997;SDS011;9124;48.144;17.098;2024-03-17T05:02:23;2.83;;;2.40;;
17997;SDS011;9124;48.144;17.098;2024-03-17T05:06:50;5.60;;;2.92;;
17997;SDS011;9124;48.144;17.098;2024-03-17T05:11:16;5.35;;;3.28;;
17997;SDS011;9124;48.144;17.098;2024-03-17T05:15:44;3.65;;;2.78;;
17997;SDS011;9124;48.144;17.098;2024-03-17T05:20:12;4.45;;;3.05;;
17997;SDS011;9124;48.144;17.098;2024-03-17T05:24:39;6.30;;;2.85;;
17997;SDS011;9124;48.144;17.098;2024-03-17T05:29:05;5.28;;;2.88;;
17997;SDS011;9124;48.144;17.098;2024-03-17T05:33:31;3.50;;;2.55;;
17997;SDS011;9124;48.144;17.098;2024-03-17T05:37:58;2.58;;;2.28;;
17997;SDS011;9124;48.144;17.098;2024-03-17T05:42:24;4.05;;;2.75;;
17997;SDS011;9124;48.144;17.098;2024-03-17T05:46:51;6.68;;;2.53;;
17997;SDS011;9124;48.144;17.098;2024-03-17T05:51:19;5.97;;;3.00;;
17997;SDS011;9124;48.144;17.098;2024-03-17T05:55:46;5.30;;;2.70;;
17997;SDS011;9124;48.144;17.098;2024-03-17T06:00:12;8.63;;;2.92;;
17997;SDS011;9124;48.144;17.098;2024-03-17T06:04:41;10.07;;;2.90;;
17997;SDS011;9124;48.144;17.098;2024-03-17T06:09:07;5.82;;;3.30;;
17997;SDS011;9124;48.144;17.098;2024-03-17T06:13:36;3.63;;;3.08;;
17997;SDS011;9124;48.144;17.098;2024-03-17T06:18:03;3.55;;;2.80;;
17997;SDS011;9124;48.144;17.098;2024-03-17T06:22:30;3.25;;;2.63;;
17997;SDS011;9124;48.144;17.098;2024-03-17T06:26:59;4.95;;;2.67;;
17997;SDS011;9124;48.144;17.098;2024-03-17T06:31:25;5.70;;;2.75;;
17997;SDS011;9124;48.144;17.098;2024-03-17T06:35:52;5.65;;;2.90;;
17997;SDS011;9124;48.144;17.098;2024-03-17T06:40:18;4.50;;;2.85;;
17997;SDS011;9124;48.144;17.098;2024-03-17T06:44:45;6.72;;;5.50;;
17997;SDS011;9124;48.144;17.098;2024-03-17T06:49:12;7.78;;;5.47;;
17997;SDS011;9124;48.144;17.098;2024-03-17T06:53:38;6.40;;;5.95;;
17997;SDS011;9124;48.144;17.098;2024-03-17T06:58:05;9.52;;;8.73;;
17997;SDS011;9124;48.144;17.098;2024-03-17T07:02:32;10.73;;;9.98;;
17997;SDS011;9124;48.144;17.098;2024-03-17T07:06:59;7.10;;;6.60;;
17997;SDS011;9124;48.144;17.098;2024-03-17T07:11:26;5.38;;;4.95;;
17997;SDS011;9124;48.144;17.098;2024-03-17T07:15:52;3.90;;;3.53;;
17997;SDS011;9124;48.144;17.098;2024-03-17T07:20:19;5.10;;;4.05;;
17997;SDS011;9124;48.144;17.098;2024-03-17T07:24:45;3.10;;;2.90;;
17997;SDS011;9124;48.144;17.098;2024-03-17T07:29:12;5.20;;;2.83;;
17997;SDS011;9124;48.144;17.098;2024-03-17T07:33:38;4.55;;;2.50;;
17997;SDS011;9124;48.144;17.098;2024-03-17T07:38:04;3.28;;;2.60;;
17997;SDS011;9124;48.144;17.098;2024-03-17T07:42:31;6.43;;;3.58;;
17997;SDS011;9124;48.144;17.098;2024-03-17T07:46:58;5.28;;;2.75;;
17997;SDS011;9124;48.144;17.098;2024-03-17T07:51:25;4.18;;;3.20;;
17997;SDS011;9124;48.144;17.098;2024-03-17T07:56:11;6.75;;;3.17;;
17997;SDS011;9124;48.144;17.098;2024-03-17T08:00:38;4.18;;;2.80;;
17997;SDS011;9124;48.144;17.098;2024-03-17T08:05:04;5.72;;;3.55;;
17997;SDS011;9124;48.144;17.098;2024-03-17T08:09:31;4.88;;;3.55;;
17997;SDS011;9124;48.144;17.098;2024-03-17T08:13:57;4.13;;;3.25;;
17997;SDS011;9124;48.144;17.098;2024-03-17T08:18:24;7.07;;;2.90;;
17997;SDS011;9124;48.144;17.098;2024-03-17T08:22:51;3.85;;;2.72;;
17997;SDS011;9124;48.144;17.098;2024-03-17T08:27:17;4.00;;;2.88;;
17997;SDS011;9124;48.144;17.098;2024-03-17T08:31:44;4.95;;;2.40;;
17997;SDS011;9124;48.144;17.098;2024-03-17T08:36:10;4.78;;;2.78;;
17997;SDS011;9124;48.144;17.098;2024-03-17T08:40:37;4.15;;;2.63;;
17997;SDS011;9124;48.144;17.098;2024-03-17T08:45:03;2.80;;;2.50;;
17997;SDS011;9124;48.144;17.098;2024-03-17T08:49:30;6.95;;;2.67;;
17997;SDS011;9124;48.144;17.098;2024-03-17T08:53:57;4.32;;;2.65;;
17997;SDS011;9124;48.144;17.098;2024-03-17T08:58:23;4.05;;;3.08;;
17997;SDS011;9124;48.144;17.098;2024-03-17T09:02:50;3.15;;;2.30;;
17997;SDS011;9124;48.144;17.098;2024-03-17T09:07:16;4.93;;;2.83;;
17997;SDS011;9124;48.144;17.098;2024-03-17T09:11:43;3.45;;;2.20;;
17997;SDS011;9124;48.144;17.098;2024-03-17T09:16:09;2.58;;;2.35;;
17997;SDS011;9124;48.144;17.098;2024-03-17T09:20:37;3.58;;;2.90;;
17997;SDS011;9124;48.144;17.098;2024-03-17T09:25:04;3.10;;;2.20;;
17997;SDS011;9124;48.144;17.098;2024-03-17T09:29:33;2.85;;;2.60;;
17997;SDS011;9124;48.144;17.098;2024-03-17T09:33:59;2.90;;;2.40;;
17997;SDS011;9124;48.144;17.098;2024-03-17T09:38:26;3.92;;;2.60;;
17997;SDS011;9124;48.144;17.098;2024-03-17T09:42:53;2.78;;;2.58;;
17997;SDS011;9124;48.144;17.098;2024-03-17T09:47:21;3.83;;;2.47;;
17997;SDS011;9124;48.144;17.098;2024-03-17T09:51:48;3.97;;;2.72;;
17997;SDS011;9124;48.144;17.098;2024-03-17T09:56:17;5.72;;;2.72;;
17997;SDS011;9124;48.144;17.098;2024-03-17T10:00:47;4.75;;;2.60;;
17997;SDS011;9124;48.144;17.098;2024-03-17T10:05:21;3.00;;;2.33;;
17997;SDS011;9124;48.144;17.098;2024-03-17T10:10:12;5.15;;;3.05;;
17997;SDS011;9124;48.144;17.098;2024-03-17T10:14:39;3.55;;;2.45;;
17997;SDS011;9124;48.144;17.098;2024-03-17T10:19:06;2.95;;;2.40;;
17997;SDS011;9124;48.144;17.098;2024-03-17T10:23:36;2.50;;;2.22;;
17997;SDS011;9124;48.144;17.098;2024-03-17T10:28:02;5.55;;;2.88;;
17997;SDS011;9124;48.144;17.098;2024-03-17T10:32:29;4.32;;;2.72;;
17997;SDS011;9124;48.144;17.098;2024-03-17T10:37:17;2.90;;;2.22;;
17997;SDS011;9124;48.144;17.098;2024-03-17T10:41:51;3.42;;;2.70;;
17997;SDS011;9124;48.144;17.098;2024-03-17T10:46:17;3.03;;;2.40;;
17997;SDS011;9124;48.144;17.098;2024-03-17T10:50:48;2.67;;;2.47;;
17997;SDS011;9124;48.144;17.098;2024-03-17T10:55:23;5.38;;;2.20;;
17997;SDS011;9124;48.144;17.098;2024-03-17T10:59:50;3.85;;;2.00;;
17997;SDS011;9124;48.144;17.098;2024-03-17T11:04:18;2.25;;;1.85;;
17997;SDS011;9124;48.144;17.098;2024-03-17T11:08:47;4.95;;;2.50;;
17997;SDS011;9124;48.144;17.098;2024-03-17T11:13:26;3.28;;;2.45;;
17997;SDS011;9124;48.144;17.098;2024-03-17T11:17:55;3.20;;;2.45;;
17997;SDS011;9124;48.144;17.098;2024-03-17T11:22:46;3.65;;;2.50;;
17997;SDS011;9124;48.144;17.098;2024-03-17T11:27:39;3.75;;;2.20;;
17997;SDS011;9124;48.144;17.098;2024-03-17T11:32:24;4.88;;;2.58;;
17997;SDS011;9124;48.144;17.098;2024-03-17T11:37:39;6.63;;;2.28;;
17997;SDS011;9124;48.144;17.098;2024-03-17T11:42:27;3.97;;;2.30;;
17997;SDS011;9124;48.144;17.098;2024-03-17T11:46:56;2.83;;;2.03;;
17997;SDS011;9124;48.144;17.098;2024-03-17T11:51:24;2.53;;;2.33;;
17997;SDS011;9124;48.144;17.098;2024-03-17T11:55:50;3.50;;;2.00;;
17997;SDS011;9124;48.144;17.098;2024-03-17T12:00:19;3.75;;;2.22;;
17997;SDS011;9124;48.144;17.098;2024-03-17T12:04:49;4.13;;;2.85;;
17997;SDS011;9124;48.144;17.098;2024-03-17T12:09:20;3.92;;;1.80;;
17997;SDS011;9124;48.144;17.098;2024-03-17T12:13:50;4.55;;;2.33;;
17997;SDS011;9124;48.144;17.098;2024-03-17T12:18:20;5.38;;;2.13;;
17997;SDS011;9124;48.144;17.098;2024-03-17T12:22:47;1.80;;;1.70;;
17997;SDS011;9124;48.144;17.098;2024-03-17T12:27:23;2.85;;;2.42;;
17997;SDS011;9124;48.144;17.098;2024-03-17T12:31:51;3.00;;;1.95;;
17997;SDS011;9124;48.144;17.098;2024-03-17T12:36:18;1.73;;;1.63;;
17997;SDS011;9124;48.144;17.098;2024-03-17T12:40:45;2.30;;;2.10;;
17997;SDS011;9124;48.144;17.098;2024-03-17T12:45:11;1.92;;;1.83;;
17997;SDS011;9124;48.144;17.098;2024-03-17T12:49:43;2.42;;;2.00;;
17997;SDS011;9124;48.144;17.098;2024-03-17T12:54:21;3.08;;;2.10;;
17997;SDS011;9124;48.144;17.098;2024-03-17T12:58:52;3.13;;;2.10;;
17997;SDS011;9124;48.144;17.098;2024-03-17T13:03:37;2.50;;;2.20;;
17997;SDS011;9124;48.144;17.098;2024-03-17T13:08:06;3.95;;;2.08;;
17997;SDS011;9124;48.144;17.098;2024-03-17T13:12:35;2.17;;;1.65;;
17997;SDS011;9124;48.144;17.098;2024-03-17T13:17:02;2.00;;;1.90;;
17997;SDS011;9124;48.144;17.098;2024-03-17T13:21:29;2.95;;;2.00;;
17997;SDS011;9124;48.144;17.098;2024-03-17T13:25:55;2.25;;;1.85;;
17997;SDS011;9124;48.144;17.098;2024-03-17T13:30:23;3.55;;;1.90;;
17997;SDS011;9124;48.144;17.098;2024-03-17T13:34:50;2.70;;;2.03;;
17997;SDS011;9124;48.144;17.098;2024-03-17T13:39:17;5.30;;;2.13;;
17997;SDS011;9124;48.144;17.098;2024-03-17T13:43:46;4.10;;;1.83;;
17997;SDS011;9124;48.144;17.098;2024-03-17T13:48:13;2.05;;;1.77;;
17997;SDS011;9124;48.144;17.098;2024-03-17T13:52:39;3.53;;;1.92;;
17997;SDS011;9124;48.144;17.098;2024-03-17T13:57:06;3.90;;;1.90;;
17997;SDS011;9124;48.144;17.098;2024-03-17T14:01:33;1.98;;;1.65;;
17997;SDS011;9124;48.144;17.098;2024-03-17T14:06:00;5.95;;;1.95;;
17997;SDS011;9124;48.144;17.098;2024-03-17T14:10:26;5.47;;;5.03;;
17997;SDS011;9124;48.144;17.098;2024-03-17T14:14:53;3.15;;;2.30;;
17997;SDS011;9124;48.144;17.098;2024-03-17T14:19:19;4.90;;;4.60;;
17997;SDS011;9124;48.144;17.098;2024-03-17T14:23:46;3.13;;;2.83;;
17997;SDS011;9124;48.144;17.098;2024-03-17T14:28:12;3.05;;;2.38;;
17997;SDS011;9124;48.144;17.098;2024-03-17T14:32:39;2.60;;;2.20;;
17997;SDS011;9124;48.144;17.098;2024-03-17T14:37:05;3.60;;;2.13;;
17997;SDS011;9124;48.144;17.098;2024-03-17T14:41:32;5.05;;;2.72;;
17997;SDS011;9124;48.144;17.098;2024-03-17T14:45:59;3.13;;;2.72;;
17997;SDS011;9124;48.144;17.098;2024-03-17T14:50:26;4.38;;;2.28;;
17997;SDS011;9124;48.144;17.098;2024-03-17T14:54:52;2.38;;;1.95;;
17997;SDS011;9124;48.144;17.098;2024-03-17T14:59:22;5.03;;;2.83;;
17997;SDS011;9124;48.144;17.098;2024-03-17T15:03:48;3.60;;;2.05;;
17997;SDS011;9124;48.144;17.098;2024-03-17T15:08:17;5.10;;;2.22;;
17997;SDS011;9124;48.144;17.098;2024-03-17T15:12:44;2.53;;;2.30;;
17997;SDS011;9124;48.144;17.098;2024-03-17T15:17:11;3.50;;;3.20;;
17997;SDS011;9124;48.144;17.098;2024-03-17T15:21:37;2.75;;;1.77;;
17997;SDS011;9124;48.144;17.098;2024-03-17T15:26:05;2.10;;;1.90;;
17997;SDS011;9124;48.144;17.098;2024-03-17T15:30:35;5.95;;;3.47;;
17997;SDS011;9124;48.144;17.098;2024-03-17T15:35:03;4.65;;;2.67;;
17997;SDS011;9124;48.144;17.098;2024-03-17T15:39:30;4.40;;;2.65;;
17997;SDS011;9124;48.144;17.098;2024-03-17T15:43:59;2.70;;;1.75;;
17997;SDS011;9124;48.144;17.098;2024-03-17T15:48:27;3.30;;;2.20;;
17997;SDS011;9124;48.144;17.098;2024-03-17T15:52:54;5.35;;;3.20;;
17997;SDS011;9124;48.144;17.098;2024-03-17T15:57:20;4.05;;;1.90;;
17997;SDS011;9124;48.144;17.098;2024-03-17T16:01:48;4.05;;;3.00;;
17997;SDS011;9124;48.144;17.098;2024-03-17T16:06:18;3.35;;;2.10;;
17997;SDS011;9124;48.144;17.098;2024-03-17T16:10:51;5.05;;;2.30;;
17997;SDS011;9124;48.144;17.098;2024-03-17T16:15:21;5.80;;;3.45;;
17997;SDS011;9124;48.144;17.098;2024-03-17T16:19:51;2.45;;;2.20;;
17997;SDS011;9124;48.144;17.098;2024-03-17T16:24:17;2.78;;;2.13;;
17997;SDS011;9124;48.144;17.098;2024-03-17T16:28:43;2.72;;;2.22;;
17997;SDS011;9124;48.144;17.098;2024-03-17T16:33:10;5.43;;;3.60;;
17997;SDS011;9124;48.144;17.098;2024-03-17T16:37:38;3.40;;;2.50;;
17997;SDS011;9124;48.144;17.098;2024-03-17T16:42:04;3.03;;;2.83;;
17997;SDS011;9124;48.144;17.098;2024-03-17T16:51:13;5.78;;;4.00;;
17997;SDS011;9124;48.144;17.098;2024-03-17T16:55:44;3.75;;;3.42;;
17997;SDS011;9124;48.144;17.098;2024-03-17T17:00:11;3.80;;;3.50;;
17997;SDS011;9124;48.144;17.098;2024-03-17T17:04:43;4.45;;;3.20;;
17997;SDS011;9124;48.144;17.098;2024-03-17T17:09:11;4.20;;;3.50;;
17997;SDS011;9124;48.144;17.098;2024-03-17T17:13:38;6.95;;;4.25;;
17997;SDS011;9124;48.144;17.098;2024-03-17T17:18:04;6.05;;;3.08;;
17997;SDS011;9124;48.144;17.098;2024-03-17T17:22:33;4.32;;;2.72;;
17997;SDS011;9124;48.144;17.098;2024-03-17T17:27:01;3.60;;;3.30;;
17997;SDS011;9124;48.144;17.098;2024-03-17T17:31:30;4.40;;;3.10;;
17997;SDS011;9124;48.144;17.098;2024-03-17T17:35:57;2.90;;;2.58;;
17997;SDS011;9124;48.144;17.098;2024-03-17T17:40:24;2.78;;;1.92;;
17997;SDS011;9124;48.144;17.098;2024-03-17T17:44:50;5.22;;;2.58;;
17997;SDS011;9124;48.144;17.098;2024-03-17T17:49:17;2.95;;;2.55;;
17997;SDS011;9124;48.144;17.098;2024-03-17T17:53:44;6.07;;;4.10;;
17997;SDS011;9124;48.144;17.098;2024-03-17T17:58:13;4.30;;;3.90;;
17997;SDS011;9124;48.144;17.098;2024-03-17T18:02:39;5.00;;;3.67;;
17997;SDS011;9124;48.144;17.098;2024-03-17T18:07:05;3.92;;;2.63;;
17997;SDS011;9124;48.144;17.098;2024-03-17T18:11:32;7.28;;;3.22;;
17997;SDS011;9124;48.144;17.098;2024-03-17T18:15:59;7.18;;;3.92;;
17997;SDS011;9124;48.144;17.098;2024-03-17T18:20:27;4.72;;;3.75;;
17997;SDS011;9124;48.144;17.098;2024-03-17T18:24:54;4.38;;;3.58;;
17997;SDS011;9124;48.144;17.098;2024-03-17T18:29:20;4.30;;;3.22;;
17997;SDS011;9124;48.144;17.098;2024-03-17T18:33:46;4.28;;;2.90;;
17997;SDS011;9124;48.144;17.098;2024-03-17T18:38:16;5.50;;;2.63;;
17997;SDS011;9124;48.144;17.098;2024-03-17T18:42:44;3.75;;;2.78;;
17997;SDS011;9124;48.144;17.098;2024-03-17T18:47:15;3.20;;;2.85;;
17997;SDS011;9124;48.144;17.098;2024-03-17T18:51:42;4.25;;;3.15;;
17997;SDS011;9124;48.144;17.098;2024-03-17T18:56:08;3.75;;;2.85;;
17997;SDS011;9124;48.144;17.098;2024-03-17T19:00:35;3.03;;;2.72;;
17997;SDS011;9124;48.144;17.098;2024-03-17T19:05:01;4.53;;;2.65;;
17997;SDS011;9124;48.144;17.098;2024-03-17T19:09:28;2.95;;;2.65;;
17997;SDS011;9124;48.144;17.098;2024-03-17T19:13:54;5.03;;;2.65;;
17997;SDS011;9124;48.144;17.098;2024-03-17T19:18:21;9.75;;;2.85;;
17997;SDS011;9124;48.144;17.098;2024-03-17T19:22:47;3.90;;;3.13;;
17997;SDS011;9124;48.144;17.098;2024-03-17T19:27:14;3.67;;;3.30;;
17997;SDS011;9124;48.144;17.098;2024-03-17T19:31:40;7.43;;;3.55;;
17997;SDS011;9124;48.144;17.098;2024-03-17T19:36:07;7.10;;;5.80;;
17997;SDS011;9124;48.144;17.098;2024-03-17T19:40:36;6.03;;;3.30;;
17997;SDS011;9124;48.144;17.098;2024-03-17T19:45:03;7.65;;;3.78;;
17997;SDS011;9124;48.144;17.098;2024-03-17T19:49:30;4.65;;;3.95;;
17997;SDS011;9124;48.144;17.098;2024-03-17T19:53:57;4.43;;;3.85;;
17997;SDS011;9124;48.144;17.098;2024-03-17T19:58:23;10.70;;;4.47;;
17997;SDS011;9124;48.144;17.098;2024-03-17T20:02:50;7.03;;;3.67;;
17997;SDS011;9124;48.144;17.098;2024-03-17T20:07:19;4.55;;;3.97;;
17997;SDS011;9124;48.144;17.098;2024-03-17T20:11:45;8.80;;;3.50;;
17997;SDS011;9124;48.144;17.098;2024-03-17T20:16:18;7.88;;;3.83;;
17997;SDS011;9124;48.144;17.098;2024-03-17T20:20:54;5.20;;;3.90;;
17997;SDS011;9124;48.144;17.098;2024-03-17T20:25:20;6.18;;;4.45;;
17997;SDS011;9124;48.144;17.098;2024-03-17T20:29:47;5.15;;;4.35;;
17997;SDS011;9124;48.144;17.098;2024-03-17T20:34:13;8.20;;;4.90;;
17997;SDS011;9124;48.144;17.098;2024-03-17T20:38:39;5.60;;;4.82;;
17997;SDS011;9124;48.144;17.098;2024-03-17T20:43:06;5.88;;;4.97;;
17997;SDS011;9124;48.144;17.098;2024-03-17T20:47:33;13.88;;;8.25;;
17997;SDS011;9124;48.144;17.098;2024-03-17T20:51:59;11.05;;;6.22;;
17997;SDS011;9124;48.144;17.098;2024-03-17T20:56:29;4.50;;;4.10;;
17997;SDS011;9124;48.144;17.098;2024-03-17T21:00:58;9.30;;;5.28;;
17997;SDS011;9124;48.144;17.098;2024-03-17T21:05:25;10.18;;;5.93;;
17997;SDS011;9124;48.144;17.098;2024-03-17T21:09:54;10.45;;;5.38;;
17997;SDS011;9124;48.144;17.098;2024-03-17T21:14:23;7.13;;;4.10;;
17997;SDS011;9124;48.144;17.098;2024-03-17T21:18:49;7.22;;;4.25;;
17997;SDS011;9124;48.144;17.098;2024-03-17T21:23:15;6.03;;;4.22;;
17997;SDS011;9124;48.144;17.098;2024-03-17T21:27:43;5.82;;;4.07;;
17997;SDS011;9124;48.144;17.098;2024-03-17T21:32:11;8.07;;;4.18;;
17997;SDS011;9124;48.144;17.098;2024-03-17T21:36:37;6.70;;;4.43;;
17997;SDS011;9124;48.144;17.098;2024-03-17T21:41:04;7.32;;;4.45;;
17997;SDS011;9124;48.144;17.098;2024-03-17T21:45:30;4.93;;;4.47;;
17997;SDS011;9124;48.144;17.098;2024-03-17T21:49:57;9.88;;;4.75;;
17997;SDS011;9124;48.144;17.098;2024-03-17T21:54:23;6.32;;;4.35;;
17997;SDS011;9124;48.144;17.098;2024-03-17T21:58:50;4.13;;;3.67;;
17997;SDS011;9124;48.144;17.098;2024-03-17T22:03:16;6.32;;;3.97;;
17997;SDS011;9124;48.144;17.098;2024-03-17T22:07:43;5.40;;;4.35;;
17997;SDS011;9124;48.144;17.098;2024-03-17T22:12:10;6.15;;;4.35;;
17997;SDS011;9124;48.144;17.098;2024-03-17T22:16:37;6.43;;;4.03;;
17997;SDS011;9124;48.144;17.098;2024-03-17T22:21:04;6.60;;;4.45;;
17997;SDS011;9124;48.144;17.098;2024-03-17T22:25:30;8.77;;;4.20;;
17997;SDS011;9124;48.144;17.098;2024-03-17T22:29:56;4.97;;;4.10;;
17997;SDS011;9124;48.144;17.098;2024-03-17T22:34:23;5.28;;;4.30;;
17997;SDS011;9124;48.144;17.098;2024-03-17T22:38:49;4.30;;;4.00;;
17997;SDS011;9124;48.144;17.098;2024-03-17T22:43:16;8.80;;;3.92;;
17997;SDS011;9124;48.144;17.098;2024-03-17T22:47:44;4.30;;;3.95;;
17997;SDS011;9124;48.144;17.098;2024-03-17T22:52:11;4.30;;;3.90;;
17997;SDS011;9124;48.144;17.098;2024-03-17T22:56:37;4.40;;;4.00;;
17997;SDS011;9124;48.144;17.098;2024-03-17T23:01:03;6.30;;;4.25;;
17997;SDS011;9124;48.144;17.098;2024-03-17T23:05:32;7.35;;;4.40;;
17997;SDS011;9124;48.144;17.098;2024-03-17T23:09:58;4.55;;;4.03;;
17997;SDS011;9124;48.144;17.098;2024-03-17T23:14:25;5.45;;;4.50;;
17997;SDS011;9124;48.144;17.098;2024-03-17T23:18:51;6.63;;;4.72;;
17997;SDS011;9124;48.144;17.098;2024-03-17T23:23:18;6.50;;;4.75;;
17997;SDS011;9124;48.144;17.098;2024-03-17T23:27:44;6.35;;;5.38;;
17997;SDS011;9124;48.144;17.098;2024-03-17T23:32:11;11.98;;;5.18;;
17997;SDS011;9124;48.144;17.098;2024-03-17T23:36:37;8.00;;;5.10;;
17997;SDS011;9124;48.144;17.098;2024-03-17T23:41:04;5.82;;;4.90;;
17997;SDS011;9124;48.144;17.098;2024-03-17T23:45:30;5.20;;;4.70;;
17997;SDS011;9124;48.144;17.098;2024-03-17T23:49:58;8.85;;;5.45;;
17997;SDS011;9124;48.144;17.098;2024-03-17T23:54:24;5.97;;;5.38;;
17997;SDS011;9124;48.144;17.098;2024-03-17T23:58:51;6.40;;;5.43;;
